Time;durP1;ratioP1;P1;durP2;ratioP2;P2;SDS_P1;SDS_P2;PMS_P1;PMS_P2;Temp;Humidity;BMP_temperature;BMP_pressure;BME280_temperature;BME280_humidity;BME280_pressure;Samples;Min_cycle;Max_cycle;Signal;HPM_P1;HPM_P2
2023/04/11 00:00:54;;;;;;;1999.90;999.90;;;12.70;99.90;;;;;;5089206;28;20470;-72
2023/04/11 00:03:21;;;;;;;1999.90;999.90;;;12.40;99.90;;;;;;5091141;28;20475;-74
2023/04/11 00:05:49;;;;;;;1999.90;999.90;;;12.40;99.90;;;;;;5090213;28;20422;-75
2023/04/11 00:08:15;;;;;;;1999.90;999.90;;;12.40;99.90;;;;;;5090958;28;20772;-72
2023/04/11 00:10:43;;;;;;;1999.90;999.90;;;12.40;99.90;;;;;;5090111;28;20525;-73
2023/04/11 00:13:10;;;;;;;1999.90;999.90;;;12.30;99.90;;;;;;5094235;28;20562;-72
2023/04/11 00:15:38;;;;;;;1999.90;999.90;;;12.30;99.90;;;;;;5090131;28;20424;-72
2023/04/11 00:18:05;;;;;;;1999.90;999.90;;;12.20;99.90;;;;;;5100079;28;20492;-73
2023/04/11 00:20:32;;;;;;;1999.90;999.90;;;12.20;99.90;;;;;;5089863;28;20512;-73
2023/04/11 00:22:58;;;;;;;1999.90;999.90;;;12.30;99.90;;;;;;5090587;28;20451;-74
2023/04/11 00:25:25;;;;;;;1999.90;999.90;;;12.30;99.90;;;;;;5097947;28;20907;-72
2023/04/11 00:27:54;;;;;;;1999.90;999.90;;;12.10;99.90;;;;;;5091551;28;20425;-72
2023/04/11 00:30:21;;;;;;;1999.90;999.90;;;12.10;99.90;;;;;;5091461;28;20883;-73
2023/04/11 00:32:48;;;;;;;1999.90;999.90;;;12.20;99.90;;;;;;5097320;28;20426;-72
2023/04/11 00:35:15;;;;;;;1999.90;999.90;;;12.00;99.90;;;;;;5096447;28;20522;-72
2023/04/11 00:37:43;;;;;;;1999.90;999.90;;;11.90;99.90;;;;;;5091681;28;20408;-73
2023/04/11 00:40:11;;;;;;;1999.90;999.90;;;11.90;99.90;;;;;;5091932;28;20892;-73
2023/04/11 00:42:38;;;;;;;1999.90;999.90;;;11.80;99.90;;;;;;5091943;28;20529;-74
2023/04/11 00:45:07;;;;;;;1999.90;999.90;;;11.70;99.90;;;;;;5097767;28;20425;-73
2023/04/11 00:47:34;;;;;;;1999.90;999.90;;;11.80;99.90;;;;;;5090045;28;20504;-72
2023/04/11 00:50:02;;;;;;;1999.90;999.90;;;11.90;99.90;;;;;;5091234;28;20421;-72
2023/04/11 00:52:28;;;;;;;1999.90;999.90;;;12.00;99.90;;;;;;5094447;28;20424;-72
2023/04/11 00:54:55;;;;;;;1999.90;999.90;;;11.90;99.90;;;;;;5090741;28;20499;-72
2023/04/11 00:57:24;;;;;;;1999.90;999.90;;;11.90;99.90;;;;;;5091003;28;20873;-72
2023/04/11 00:59:51;;;;;;;1999.90;999.90;;;11.80;99.90;;;;;;5090273;28;20422;-72
2023/04/11 01:02:19;;;;;;;1999.90;999.90;;;11.50;99.90;;;;;;5089447;28;20433;-73
2023/04/11 01:04:46;;;;;;;1999.90;999.90;;;11.50;99.90;;;;;;5089949;28;20429;-72
2023/04/11 01:07:13;;;;;;;1999.90;999.90;;;11.60;99.90;;;;;;5089970;28;20421;-74
2023/04/11 01:09:41;;;;;;;1999.90;999.90;;;11.60;99.90;;;;;;5089276;28;20839;-72
2023/04/11 01:12:09;;;;;;;1999.90;999.90;;;11.50;99.90;;;;;;5107223;28;20434;-72
2023/04/11 01:14:36;;;;;;;1999.90;999.90;;;11.60;99.90;;;;;;5093000;28;20426;-73
2023/04/11 01:17:03;;;;;;;1999.90;999.90;;;11.60;99.90;;;;;;5089657;28;20426;-72
2023/04/11 01:19:31;;;;;;;1999.90;999.90;;;11.60;99.90;;;;;;5089767;28;20756;-74
2023/04/11 01:21:59;;;;;;;1999.90;999.90;;;11.70;99.90;;;;;;5094519;28;20473;-72
2023/04/11 01:24:28;;;;;;;1999.90;999.90;;;11.90;99.90;;;;;;5094969;28;20979;-72
2023/04/11 01:26:55;;;;;;;1999.90;999.90;;;11.70;99.90;;;;;;5089639;28;20434;-69
2023/04/11 01:29:22;;;;;;;1999.90;999.90;;;11.50;99.90;;;;;;5085181;28;22376;-72
2023/04/11 01:31:49;;;;;;;1999.90;999.90;;;11.30;99.90;;;;;;5090960;28;20781;-74
2023/04/11 01:34:17;;;;;;;1999.90;999.90;;;11.20;99.90;;;;;;5091522;28;20439;-68
2023/04/11 01:36:44;;;;;;;1999.90;999.90;;;11.20;99.90;;;;;;5089512;28;20776;-71
2023/04/11 01:39:10;;;;;;;1999.90;999.90;;;11.20;99.90;;;;;;5090374;28;20430;-73
2023/04/11 01:41:41;;;;;;;1999.90;999.90;;;11.30;99.90;;;;;;5099371;28;20485;-69
2023/04/11 01:44:08;;;;;;;1999.90;999.90;;;11.40;99.90;;;;;;5089118;28;20456;-72
2023/04/11 01:46:35;;;;;;;1999.90;999.90;;;11.50;99.90;;;;;;5088701;28;20418;-72
2023/04/11 01:49:03;;;;;;;1999.90;999.90;;;11.20;99.90;;;;;;5090339;28;20417;-72
2023/04/11 01:51:30;;;;;;;1999.90;999.90;;;11.10;99.90;;;;;;5102733;28;20947;-72
2023/04/11 01:53:57;;;;;;;1999.90;999.90;;;11.00;99.90;;;;;;5089525;28;20430;-72
2023/04/11 01:56:23;;;;;;;1999.90;999.90;;;10.90;99.90;;;;;;5089572;28;20418;-72
2023/04/11 01:58:51;;;;;;;1999.90;999.90;;;10.90;99.90;;;;;;5090063;28;20442;-72
2023/04/11 02:01:18;;;;;;;1999.90;999.90;;;11.00;99.90;;;;;;5087863;28;20498;-72
2023/04/11 02:03:46;;;;;;;1999.90;999.90;;;11.10;99.90;;;;;;5097267;28;20427;-74
2023/04/11 02:06:12;;;;;;;1999.90;999.90;;;11.30;99.90;;;;;;5082442;28;20426;-73
2023/04/11 02:08:39;;;;;;;1999.90;999.90;;;11.20;99.90;;;;;;5089637;28;20421;-73
2023/04/11 02:11:07;;;;;;;1999.90;999.90;;;11.20;99.90;;;;;;5094866;28;20458;-72
2023/04/11 02:13:34;;;;;;;1999.90;999.90;;;11.30;99.90;;;;;;5087795;28;20454;-73
2023/04/11 02:16:07;;;;;;;1999.90;999.90;;;11.30;99.90;;;;;;5104626;28;20970;-72
2023/04/11 02:18:34;;;;;;;1999.90;999.90;;;11.40;99.90;;;;;;5089656;28;20440;-72
2023/04/11 02:21:00;;;;;;;1999.90;999.90;;;11.40;99.90;;;;;;5099065;28;20430;-73
2023/04/11 02:23:27;;;;;;;1999.90;999.90;;;11.40;99.90;;;;;;5088042;28;20807;-74
2023/04/11 02:25:54;;;;;;;1999.90;999.90;;;11.20;99.90;;;;;;5089362;28;20426;-70
2023/04/11 02:28:21;;;;;;;1999.90;999.90;;;11.00;99.90;;;;;;5088280;28;20432;-73
2023/04/11 02:30:48;;;;;;;1999.90;999.90;;;11.10;99.90;;;;;;5102652;28;20925;-73
2023/04/11 02:33:16;;;;;;;1999.90;999.90;;;11.10;99.90;;;;;;5093150;28;20895;-72
2023/04/11 02:35:42;;;;;;;1999.90;999.90;;;11.00;99.90;;;;;;5089552;28;20487;-74
2023/04/11 02:38:09;;;;;;;1999.90;999.90;;;11.00;99.90;;;;;;5089045;28;20421;-74
2023/04/11 02:40:36;;;;;;;1999.90;999.90;;;10.90;99.90;;;;;;5094816;28;21142;-74
2023/04/11 02:43:02;;;;;;;1999.90;999.90;;;10.80;99.90;;;;;;5088525;28;20433;-75
2023/04/11 02:45:29;;;;;;;1999.90;999.90;;;10.80;99.90;;;;;;5089828;28;20421;-74
2023/04/11 02:47:57;;;;;;;1999.90;999.90;;;10.70;99.90;;;;;;5089164;28;20471;-72
2023/04/11 02:50:25;;;;;;;1999.90;999.90;;;10.70;99.90;;;;;;5094006;28;20504;-72
2023/04/11 02:52:52;;;;;;;1999.90;999.90;;;10.70;99.90;;;;;;5089187;28;20436;-73
2023/04/11 02:55:21;;;;;;;1999.90;999.90;;;10.60;99.90;;;;;;5089125;28;20849;-72
2023/04/11 02:57:48;;;;;;;1999.90;999.90;;;10.60;99.90;;;;;;5092702;28;20445;-72
2023/04/11 03:00:15;;;;;;;1999.90;999.90;;;10.60;99.90;;;;;;5092599;28;20462;-72
2023/04/11 03:02:42;;;;;;;1999.90;999.90;;;10.60;99.90;;;;;;5086945;28;20513;-73
2023/04/11 03:05:09;;;;;;;1999.90;999.90;;;10.80;99.90;;;;;;5087334;28;20425;-72
2023/04/11 03:07:39;;;;;;;1999.90;999.90;;;10.90;99.90;;;;;;5088779;28;20480;-74
2023/04/11 03:10:07;;;;;;;1999.90;999.90;;;10.90;99.90;;;;;;5100135;28;20428;-72
2023/04/11 03:12:33;;;;;;;1999.90;999.90;;;10.90;99.90;;;;;;5094588;28;20830;-73
2023/04/11 03:15:00;;;;;;;1999.90;999.90;;;10.90;99.90;;;;;;5087730;28;20437;-73
2023/04/11 03:17:27;;;;;;;1999.90;999.90;;;10.80;99.90;;;;;;5088579;28;20418;-73
2023/04/11 03:19:53;;;;;;;1999.90;999.90;;;10.90;99.90;;;;;;5087489;28;20467;-72
2023/04/11 03:22:22;;;;;;;1999.90;999.90;;;10.80;99.90;;;;;;5088968;28;20421;-70
2023/04/11 03:24:50;;;;;;;1999.90;999.90;;;10.70;99.90;;;;;;5087940;28;20453;-73
2023/04/11 03:27:17;;;;;;;1999.90;999.90;;;10.70;99.90;;;;;;5088339;28;20429;-74
2023/04/11 03:29:44;;;;;;;1999.90;999.90;;;10.70;99.90;;;;;;5088345;28;20418;-74
2023/04/11 03:32:10;;;;;;;1999.90;999.90;;;10.70;99.90;;;;;;5095904;28;20430;-74
2023/04/11 03:34:37;;;;;;;1999.90;999.90;;;10.60;99.90;;;;;;5088839;28;20957;-74
2023/04/11 03:37:04;;;;;;;1999.90;999.90;;;10.60;99.90;;;;;;5090336;28;20425;-75
2023/04/11 03:39:30;;;;;;;1999.90;999.90;;;10.40;99.90;;;;;;5090684;28;20421;-74
2023/04/11 03:41:58;;;;;;;1999.90;999.90;;;10.30;99.90;;;;;;5090748;28;20425;-74
2023/04/11 03:44:25;;;;;;;1999.90;999.90;;;10.30;99.90;;;;;;5092511;28;20425;-74
2023/04/11 03:46:52;;;;;;;1999.90;999.90;;;10.20;99.90;;;;;;5088972;28;20483;-74
2023/04/11 03:49:18;;;;;;;1999.90;999.90;;;10.20;99.90;;;;;;5086484;28;20494;-75
2023/04/11 03:51:45;;;;;;;1999.90;999.90;;;10.30;99.90;;;;;;5091645;28;20418;-74
2023/04/11 03:54:12;;;;;;;1999.90;999.90;;;10.40;99.90;;;;;;5086975;28;20457;-73
2023/04/11 03:56:38;;;;;;;1999.90;999.90;;;10.40;99.90;;;;;;5089259;28;20437;-74
2023/04/11 03:59:06;;;;;;;1999.90;999.90;;;10.40;99.90;;;;;;5092599;28;20888;-72
2023/04/11 04:01:36;;;;;;;1999.90;999.90;;;10.30;99.90;;;;;;5089237;28;20425;-75
2023/04/11 04:04:03;;;;;;;1999.90;999.90;;;10.30;99.90;;;;;;5087117;28;20437;-74
2023/04/11 04:06:30;;;;;;;1999.90;999.90;;;10.30;99.90;;;;;;5087388;28;20430;-74
2023/04/11 04:08:58;;;;;;;1999.90;999.90;;;10.30;99.90;;;;;;5095106;28;20422;-73
2023/04/11 04:11:25;;;;;;;1999.90;999.90;;;10.30;99.90;;;;;;5091977;28;20535;-74
2023/04/11 04:13:51;;;;;;;1999.90;999.90;;;10.30;99.90;;;;;;5088760;28;20502;-70
2023/04/11 04:16:19;;;;;;;1999.90;999.90;;;10.30;99.90;;;;;;5090152;28;20430;-71
2023/04/11 04:18:46;;;;;;;1999.90;999.90;;;10.20;99.90;;;;;;5096738;28;20784;-74
2023/04/11 04:21:13;;;;;;;1999.90;999.90;;;10.10;99.90;;;;;;5092635;28;20421;-69
2023/04/11 04:23:46;;;;;;;1999.90;999.90;;;10.00;99.90;;;;;;5088533;28;20444;-73
2023/04/11 04:26:14;;;;;;;1999.90;999.90;;;10.00;99.90;;;;;;5088522;28;20425;-72
2023/04/11 04:28:44;;;;;;;1999.90;999.90;;;10.00;99.90;;;;;;5100009;28;20490;-75
2023/04/11 04:31:11;;;;;;;1999.90;999.90;;;10.20;99.90;;;;;;5095298;28;20428;-73
2023/04/11 04:33:41;;;;;;;1999.90;999.90;;;10.30;99.90;;;;;;5091090;28;20920;-74
2023/04/11 04:36:11;;;;;;;1999.90;999.90;;;10.40;99.90;;;;;;5090724;28;20425;-74
2023/04/11 04:38:40;;;;;;;1999.90;999.90;;;10.40;99.90;;;;;;5097672;28;20479;-75
2023/04/11 04:41:13;;;;;;;1999.90;999.90;;;10.50;99.90;;;;;;5103217;28;20433;-72
2023/04/11 04:43:41;;;;;;;1999.90;999.90;;;10.60;99.90;;;;;;5090794;28;20472;-72
2023/04/11 04:46:08;;;;;;;1999.90;999.90;;;10.60;99.90;;;;;;5091365;28;20882;-75
2023/04/11 04:48:34;;;;;;;1999.90;999.90;;;10.40;99.90;;;;;;5089909;28;20900;-73
2023/04/11 04:51:03;;;;;;;1999.90;999.90;;;10.50;99.90;;;;;;5096898;28;20420;-72
2023/04/11 04:53:29;;;;;;;1999.90;999.90;;;10.50;99.90;;;;;;5091901;28;20447;-74
2023/04/11 04:55:56;;;;;;;1999.90;999.90;;;10.40;99.90;;;;;;5092394;28;20425;-73
2023/04/11 04:58:23;;;;;;;1999.90;999.90;;;10.40;99.90;;;;;;5094254;28;20425;-72
2023/04/11 05:00:54;;;;;;;1999.90;999.90;;;10.50;99.90;;;;;;5090496;28;20448;-71
2023/04/11 05:03:21;;;;;;;1999.90;999.90;;;10.60;99.90;;;;;;5089146;28;20434;-73
2023/04/11 05:05:48;;;;;;;1999.90;999.90;;;10.70;99.90;;;;;;5095904;28;21087;-70
2023/04/11 05:08:18;;;;;;;1999.90;999.90;;;10.70;99.90;;;;;;5091119;28;20911;-72
2023/04/11 05:10:44;;;;;;;1999.90;999.90;;;10.60;99.90;;;;;;5091359;28;20430;-72
2023/04/11 05:13:11;;;;;;;1999.90;999.90;;;10.60;99.90;;;;;;5091140;28;20957;-74
2023/04/11 05:15:38;;;;;;;1999.90;999.90;;;10.50;99.90;;;;;;5090702;28;20443;-74
2023/04/11 05:18:04;;;;;;;1999.90;999.90;;;10.40;99.90;;;;;;5089650;28;20425;-72
2023/04/11 05:20:31;;;;;;;1999.90;999.90;;;10.40;99.90;;;;;;5090978;28;20430;-75
2023/04/11 05:22:58;;;;;;;1999.90;999.90;;;10.50;99.90;;;;;;5082807;28;20433;-75
2023/04/11 05:25:25;;;;;;;1999.90;999.90;;;10.40;99.90;;;;;;5098733;28;20542;-74
2023/04/11 05:27:52;;;;;;;1999.90;999.90;;;10.40;99.90;;;;;;5090892;28;20430;-74
2023/04/11 05:30:19;;;;;;;1999.90;999.90;;;10.40;99.90;;;;;;5099724;28;20421;-73
2023/04/11 05:32:46;;;;;;;1999.90;999.90;;;10.40;99.90;;;;;;5087511;28;20426;-74
2023/04/11 05:35:13;;;;;;;1999.90;999.90;;;10.40;99.90;;;;;;5090794;28;20429;-74
2023/04/11 05:37:41;;;;;;;1999.90;999.90;;;10.40;99.90;;;;;;5090956;28;20483;-74
2023/04/11 05:40:09;;;;;;;1999.90;999.90;;;10.40;99.90;;;;;;5095545;28;20450;-73
2023/04/11 05:42:37;;;;;;;1999.90;999.90;;;10.40;99.90;;;;;;5090611;28;20418;-72
2023/04/11 05:45:05;;;;;;;1999.90;999.90;;;10.30;99.90;;;;;;5093167;28;20826;-71
2023/04/11 05:47:32;;;;;;;1999.90;999.90;;;10.30;99.90;;;;;;5090979;28;20422;-73
2023/04/11 05:49:58;;;;;;;1999.90;999.90;;;10.30;99.90;;;;;;5098397;28;20515;-73
2023/04/11 05:52:25;;;;;;;1999.90;999.90;;;9.70;99.90;;;;;;5092238;28;20421;-73
2023/04/11 05:54:51;;;;;;;1999.90;999.90;;;9.20;99.90;;;;;;5095019;28;20435;-75
2023/04/11 05:57:18;;;;;;;1999.90;999.90;;;8.90;99.90;;;;;;5092335;28;20834;-73
2023/04/11 05:59:48;;;;;;;1999.90;999.90;;;8.50;99.90;;;;;;5098719;28;20412;-74
2023/04/11 06:02:15;;;;;;;1999.90;999.90;;;8.30;99.90;;;;;;5089167;28;20452;-77
2023/04/11 06:04:42;;;;;;;1999.90;999.90;;;8.20;99.90;;;;;;5083451;28;20426;-76
2023/04/11 06:07:08;;;;;;;1999.90;999.90;;;8.20;99.90;;;;;;5093874;28;20487;-76
2023/04/11 06:09:35;;;;;;;1999.90;999.90;;;8.20;99.90;;;;;;5097573;28;20523;-72
2023/04/11 06:12:02;;;;;;;1999.90;999.90;;;8.30;99.90;;;;;;5093083;28;20425;-76
2023/04/11 06:14:29;;;;;;;1999.90;999.90;;;8.40;99.90;;;;;;5095303;28;20425;-78
2023/04/11 06:16:57;;;;;;;1999.90;999.90;;;8.40;99.90;;;;;;5085582;28;20429;-71
2023/04/11 06:19:23;;;;;;;1999.90;999.90;;;8.30;99.90;;;;;;5092235;28;20441;-72
2023/04/11 06:21:50;;;;;;;1999.90;999.90;;;8.40;99.90;;;;;;5091871;28;20483;-75
2023/04/11 06:24:18;;;;;;;1999.90;999.90;;;8.30;99.90;;;;;;5095636;28;20434;-74
2023/04/11 06:26:45;;;;;;;1999.90;999.90;;;8.30;99.90;;;;;;5093470;28;20427;-72
2023/04/11 06:29:11;;;;;;;1999.90;999.90;;;8.30;99.90;;;;;;5091438;28;20513;-74
2023/04/11 06:31:40;;;;;;;1999.90;999.90;;;8.30;99.90;;;;;;5089424;28;20479;-73
2023/04/11 06:34:08;;;;;;;1999.90;999.90;;;8.50;99.90;;;;;;5096520;28;20458;-73
2023/04/11 06:36:36;;;;;;;1999.90;999.90;;;8.80;99.90;;;;;;5081606;28;20425;-75
2023/04/11 06:39:04;;;;;;;1999.90;999.90;;;9.00;99.90;;;;;;5092814;28;20786;-76
2023/04/11 06:41:31;;;;;;;1999.90;999.90;;;9.20;99.90;;;;;;5090838;28;20438;-75
2023/04/11 06:43:57;;;;;;;1999.90;999.90;;;9.40;99.90;;;;;;5092433;28;20475;-72
2023/04/11 06:46:24;;;;;;;1999.90;999.90;;;9.50;99.90;;;;;;5094199;28;20423;-74
2023/04/11 06:48:51;;;;;;;1999.90;999.90;;;9.60;99.90;;;;;;5085495;28;20435;-74
2023/04/11 06:51:18;;;;;;;1999.90;999.90;;;9.90;99.90;;;;;;5084204;28;20494;-74
2023/04/11 06:53:45;;;;;;;1999.90;999.90;;;10.20;99.90;;;;;;5079401;28;20435;-75
2023/04/11 06:56:12;;;;;;;1999.90;999.90;;;10.50;99.90;;;;;;5085860;28;20476;-75
2023/04/11 06:58:38;;;;;;;1999.90;999.90;;;10.60;99.90;;;;;;5088711;28;20491;-72
2023/04/11 07:01:05;;;;;;;1999.90;999.90;;;10.80;99.90;;;;;;5084303;28;20480;-71
2023/04/11 07:03:32;;;;;;;1999.90;999.90;;;11.10;99.90;;;;;;5089754;28;20508;-75
2023/04/11 07:05:59;;;;;;;1999.90;999.90;;;11.40;99.90;;;;;;5102321;28;20791;-74
2023/04/11 07:08:27;;;;;;;1999.90;999.90;;;11.50;99.90;;;;;;5078572;28;20439;-72
2023/04/11 07:10:54;;;;;;;1999.90;999.90;;;11.60;99.90;;;;;;5083087;28;20479;-73
2023/04/11 07:13:21;;;;;;;1999.90;999.90;;;11.80;99.90;;;;;;5080523;28;20437;-75
2023/04/11 07:15:47;;;;;;;1999.90;999.90;;;12.00;99.90;;;;;;5088888;28;20453;-74
2023/04/11 07:18:14;;;;;;;1999.90;999.90;;;12.30;99.90;;;;;;5088420;28;20491;-74
2023/04/11 07:20:41;;;;;;;1999.90;999.90;;;12.40;99.90;;;;;;5090769;28;20424;-73
2023/04/11 07:23:08;;;;;;;1999.90;999.90;;;12.20;99.90;;;;;;5098464;28;20424;-75
2023/04/11 07:25:38;;;;;;;1999.90;999.90;;;11.90;99.90;;;;;;5098771;28;20421;-69
2023/04/11 07:28:07;;;;;;;1999.90;999.90;;;11.40;99.90;;;;;;5091336;28;20517;-70
2023/04/11 07:30:34;;;;;;;1999.90;999.90;;;10.50;99.90;;;;;;5086584;28;20421;-71
2023/04/11 07:33:01;;;;;;;1999.90;999.90;;;9.60;99.90;;;;;;5106796;28;20461;-70
2023/04/11 07:35:30;;;;;;;1999.90;999.90;;;8.70;99.90;;;;;;5103702;28;20911;-74
2023/04/11 07:37:57;;;;;;;1999.90;999.90;;;8.20;99.90;;;;;;5097822;28;20428;-72
2023/04/11 07:40:24;;;;;;;1999.90;999.90;;;8.20;99.90;;;;;;5088716;28;20430;-70
2023/04/11 07:42:52;;;;;;;1999.90;999.90;;;8.30;99.90;;;;;;5085744;28;20850;-71
2023/04/11 07:45:19;;;;;;;1999.90;999.90;;;8.40;99.90;;;;;;5080255;28;20446;-73
2023/04/11 07:47:46;;;;;;;1999.90;999.90;;;8.60;99.90;;;;;;5071843;28;20501;-70
2023/04/11 07:50:13;;;;;;;1999.90;999.90;;;8.70;99.90;;;;;;5070533;28;20944;-73
2023/04/11 07:52:39;;;;;;;1999.90;999.90;;;9.00;99.90;;;;;;5080090;28;20467;-73
2023/04/11 07:55:07;;;;;;;1999.90;999.90;;;9.30;99.90;;;;;;5091869;28;20887;-72
2023/04/11 07:57:33;;;;;;;1999.90;999.90;;;9.20;99.90;;;;;;5087997;28;20433;-71
2023/04/11 08:00:03;;;;;;;1999.90;999.90;;;9.10;99.90;;;;;;5090801;28;20426;-71
2023/04/11 08:02:29;;;;;;;1999.90;999.90;;;9.00;99.90;;;;;;5090303;28;20471;-74
2023/04/11 08:04:56;;;;;;;1999.90;999.90;;;8.90;99.90;;;;;;5091025;28;20437;-72
2023/04/11 08:07:22;;;;;;;1999.90;999.90;;;8.80;99.90;;;;;;5088261;28;20431;-73
2023/04/11 08:09:49;;;;;;;1999.90;999.90;;;8.50;99.90;;;;;;5085178;28;20456;-74
2023/04/11 08:12:16;;;;;;;1999.90;999.90;;;8.30;99.90;;;;;;5097421;28;20913;-73
2023/04/11 08:14:43;;;;;;;1999.90;999.90;;;8.10;99.90;;;;;;5091917;28;20519;-69
2023/04/11 08:17:13;;;;;;;1999.90;999.90;;;8.10;99.90;;;;;;5091426;28;20429;-71
2023/04/11 08:19:40;;;;;;;1999.90;999.90;;;8.00;99.90;;;;;;5098108;28;20429;-70
2023/04/11 08:22:06;;;;;;;1999.90;999.90;;;8.10;99.90;;;;;;5094186;28;20428;-74
2023/04/11 08:24:33;;;;;;;1999.90;999.90;;;8.20;99.90;;;;;;5099497;28;20937;-74
2023/04/11 08:27:00;;;;;;;1999.90;999.90;;;8.70;99.90;;;;;;5088471;28;20864;-73
2023/04/11 08:29:27;;;;;;;1999.90;999.90;;;9.10;99.90;;;;;;5091076;28;20953;-75
2023/04/11 08:31:53;;;;;;;1999.90;999.90;;;9.60;99.90;;;;;;5093821;28;20919;-74
2023/04/11 08:34:21;;;;;;;1999.90;999.90;;;9.90;99.90;;;;;;5087583;28;20443;-73
2023/04/11 08:36:48;;;;;;;1999.90;999.90;;;10.10;99.90;;;;;;5093608;28;20431;-71
2023/04/11 08:39:15;;;;;;;1999.90;999.90;;;9.90;99.90;;;;;;5097314;28;20427;-75
2023/04/11 08:41:41;;;;;;;1999.90;999.90;;;9.90;99.90;;;;;;5092017;28;20455;-71
2023/04/11 08:44:11;;;;;;;1999.90;999.90;;;10.00;99.90;;;;;;5098921;28;20483;-73
2023/04/11 08:46:41;;;;;;;1999.90;999.90;;;10.10;99.90;;;;;;5093360;28;20510;-72
2023/04/11 08:49:08;;;;;;;1999.90;999.90;;;10.40;99.90;;;;;;5093362;28;20437;-74
2023/04/11 08:51:36;;;;;;;1999.90;999.90;;;10.60;99.90;;;;;;5088613;28;20432;-76
2023/04/11 08:54:05;;;;;;;1999.90;999.90;;;10.60;99.90;;;;;;5074159;28;20885;-74
2023/04/11 08:56:33;;;;;;;1999.90;999.90;;;10.50;99.90;;;;;;5074226;28;20419;-73
2023/04/11 08:59:00;;;;;;;1999.90;999.90;;;10.50;99.90;;;;;;5073550;28;20951;-71
2023/04/11 09:01:30;;;;;;;1999.90;999.90;;;10.50;99.90;;;;;;5073962;28;20416;-74
2023/04/11 09:03:58;;;;;;;1999.90;999.90;;;10.40;99.90;;;;;;5079357;28;20436;-75
2023/04/11 09:06:29;;;;;;;1999.90;999.90;;;10.40;99.90;;;;;;5081445;28;20419;-75
2023/04/11 09:08:58;;;;;;;1999.90;999.90;;;10.50;99.90;;;;;;5075884;28;20554;-73
2023/04/11 09:11:25;;;;;;;1999.90;999.90;;;10.80;99.90;;;;;;5089221;28;20503;-76
2023/04/11 09:14:06;;;;;;;1999.90;999.90;;;10.90;99.90;;;;;;5072827;28;20465;-76
2023/04/11 09:16:33;;;;;;;1999.90;999.90;;;10.90;99.90;;;;;;5072507;28;20447;-75
2023/04/11 09:19:00;;;;;;;1999.90;999.90;;;11.10;99.90;;;;;;5090929;28;20543;-73
2023/04/11 09:21:28;;;;;;;1999.90;999.90;;;10.90;99.90;;;;;;5073068;28;20415;-75
2023/04/11 09:23:54;;;;;;;1999.90;999.90;;;10.80;99.90;;;;;;5082912;28;20525;-75
2023/04/11 09:26:30;;;;;;;1999.90;999.90;;;10.60;99.90;;;;;;5092495;28;20445;-74
2023/04/11 09:28:57;;;;;;;1999.90;999.90;;;10.80;99.90;;;;;;5093030;28;20413;-75
2023/04/11 09:31:40;;;;;;;1999.90;999.90;;;10.70;99.90;;;;;;5093027;28;20429;-74
2023/04/11 09:34:07;;;;;;;1999.90;999.90;;;10.60;99.90;;;;;;5090819;28;20513;-71
2023/04/11 09:36:34;;;;;;;1999.90;999.90;;;10.80;99.90;;;;;;5098858;28;20435;-74
2023/04/11 09:39:16;;;;;;;1999.90;999.90;;;10.80;99.90;;;;;;5090430;28;20487;-74
2023/04/11 09:41:44;;;;;;;1999.90;999.90;;;11.10;99.90;;;;;;5089799;28;20495;-74
2023/04/11 09:44:10;;;;;;;1999.90;999.90;;;11.10;99.90;;;;;;5091312;28;20421;-75
2023/04/11 09:46:37;;;;;;;1999.90;999.90;;;11.30;99.90;;;;;;5085117;28;20943;-75
2023/04/11 09:49:04;;;;;;;1999.90;999.90;;;11.30;99.90;;;;;;5088130;28;20421;-75
2023/04/11 09:51:31;;;;;;;1999.90;999.90;;;11.30;99.90;;;;;;5093144;28;20422;-75
2023/04/11 09:53:58;;;;;;;1999.90;999.90;;;11.10;99.90;;;;;;5093238;28;20554;-75
2023/04/11 09:56:26;;;;;;;1999.90;999.90;;;10.90;99.90;;;;;;5092668;28;20903;-73
2023/04/11 09:58:55;;;;;;;1999.90;999.90;;;11.00;99.90;;;;;;5092633;28;20422;-76
2023/04/11 10:01:23;;;;;;;1999.90;999.90;;;11.20;99.90;;;;;;5091728;28;20412;-75
2023/04/11 10:03:50;;;;;;;1999.90;999.90;;;11.10;99.90;;;;;;5091898;28;20513;-73
2023/04/11 10:06:30;;;;;;;1999.90;999.90;;;11.20;99.90;;;;;;5091420;28;20418;-75
2023/04/11 10:09:05;;;;;;;1999.90;999.90;;;11.30;99.90;;;;;;5091905;28;20468;-75
2023/04/11 10:11:32;;;;;;;1999.90;999.90;;;11.50;99.90;;;;;;5092833;28;20915;-71
2023/04/11 10:14:00;;;;;;;1999.90;999.90;;;11.40;99.90;;;;;;5092828;28;20421;-74
2023/04/11 10:16:31;;;;;;;1999.90;999.90;;;11.30;99.90;;;;;;5089768;28;20476;-74
2023/04/11 10:19:22;;;;;;;1999.90;999.90;;;11.30;99.90;;;;;;5072699;28;20506;-73
2023/04/11 10:21:49;;;;;;;1999.90;999.90;;;11.60;99.90;;;;;;5071797;28;20407;-77
2023/04/11 10:24:16;;;;;;;1999.90;999.90;;;11.90;99.90;;;;;;5090553;28;20750;-74
2023/04/11 10:26:51;;;;;;;1999.90;999.90;;;12.10;99.90;;;;;;5091928;28;20498;-72
2023/04/11 10:29:47;;;;;;;1999.90;999.90;;;12.10;99.90;;;;;;5095805;22;20436;-78
2023/04/11 10:32:24;;;;;;;1999.90;999.90;;;12.30;99.90;;;;;;5094881;28;20846;-71
2023/04/11 10:35:21;;;;;;;1999.90;999.90;;;12.20;99.90;;;;;;5105218;28;20422;-75
2023/04/11 10:37:48;;;;;;;1999.90;999.90;;;12.40;99.90;;;;;;5106975;28;20520;-75
2023/04/11 10:40:15;;;;;;;1999.90;999.90;;;12.70;99.90;;;;;;5102713;28;20417;-75
2023/04/11 10:42:43;;;;;;;1999.90;999.90;;;12.90;99.90;;;;;;5103003;28;20431;-75
2023/04/11 10:45:25;;;;;;;1999.90;999.90;;;12.80;99.90;;;;;;5090633;28;20433;-74
2023/04/11 10:48:10;;;;;;;1999.90;999.90;;;12.80;99.90;;;;;;5094718;28;20519;-73
2023/04/11 10:50:44;;;;;;;1999.90;999.90;;;13.10;99.90;;;;;;5091794;28;20437;-73
2023/04/11 10:53:36;;;;;;;1999.90;999.90;;;13.00;99.90;;;;;;5088697;28;20490;-72
2023/04/11 10:56:03;;;;;;;1999.90;999.90;;;12.80;99.90;;;;;;5089691;28;20822;-70
2023/04/11 10:58:38;;;;;;;1999.90;999.90;;;12.60;99.90;;;;;;5088670;28;20969;-75
2023/04/11 11:01:17;;;;;;;1999.90;999.90;;;12.40;99.90;;;;;;5094013;28;20424;-76
2023/04/11 11:03:56;;;;;;;1999.90;999.90;;;12.40;99.90;;;;;;5079198;28;20426;-74
2023/04/11 11:06:24;;;;;;;1999.90;999.90;;;12.70;99.90;;;;;;5081480;28;20508;-75
2023/04/11 11:08:51;;;;;;;1999.90;999.90;;;13.00;99.90;;;;;;5090893;28;20498;-72
2023/04/11 11:11:18;;;;;;;1999.90;999.90;;;12.80;99.90;;;;;;5084890;28;20421;-77
2023/04/11 11:13:48;;;;;;;1999.90;999.90;;;12.70;99.90;;;;;;5093215;28;20783;-75
2023/04/11 11:16:18;;;;;;;1999.90;999.90;;;12.40;99.90;;;;;;5090250;28;20800;-74
2023/04/11 11:18:46;;;;;;;1999.90;999.90;;;12.20;99.90;;;;;;5087152;28;20479;-75
2023/04/11 11:21:15;;;;;;;1999.90;999.90;;;12.10;99.90;;;;;;5090324;28;20412;-72
2023/04/11 11:23:53;;;;;;;1999.90;999.90;;;12.20;99.90;;;;;;5087641;28;20509;-74
2023/04/11 11:26:19;;;;;;;1999.90;999.90;;;12.00;99.90;;;;;;5081070;28;20413;-75
2023/04/11 11:28:48;;;;;;;1999.90;999.90;;;11.90;99.90;;;;;;5069477;28;22347;-74
2023/04/11 11:31:16;;;;;;;1999.90;999.90;;;12.00;99.90;;;;;;5089122;28;20421;-75
2023/04/11 11:33:43;;;;;;;1999.90;999.90;;;11.80;99.90;;;;;;5086469;28;20850;-74
2023/04/11 11:36:10;;;;;;;1999.90;999.90;;;11.80;99.90;;;;;;5085096;28;20576;-72
2023/04/11 11:38:37;;;;;;;1999.90;999.90;;;11.90;99.90;;;;;;5076858;28;20892;-75
2023/04/11 11:41:04;;;;;;;1999.90;999.90;;;11.90;99.90;;;;;;5095192;28;20406;-71
2023/04/11 11:43:36;;;;;;;1999.90;999.90;;;12.00;99.90;;;;;;5087926;28;20431;-75
2023/04/11 11:46:12;;;;;;;1999.90;999.90;;;12.20;99.90;;;;;;5089564;28;20456;-75
2023/04/11 11:48:41;;;;;;;1999.90;999.90;;;12.40;99.90;;;;;;5079731;28;20435;-75
2023/04/11 11:51:08;;;;;;;1999.90;999.90;;;12.60;99.90;;;;;;5087472;28;21028;-75
2023/04/11 11:53:35;;;;;;;1999.90;999.90;;;13.10;99.90;;;;;;5079594;28;20454;-72
2023/04/11 11:56:12;;;;;;;1999.90;999.90;;;13.60;99.90;;;;;;5084105;28;20427;-73
2023/04/11 11:58:43;;;;;;;1999.90;999.90;;;14.10;99.90;;;;;;5075658;28;20421;-71
2023/04/11 12:01:13;;;;;;;1999.90;999.90;;;14.00;97.60;;;;;;5081148;28;20853;-72
2023/04/11 12:03:42;;;;;;;1999.90;999.90;;;14.10;97.30;;;;;;5080385;28;20470;-72
2023/04/11 12:06:09;;;;;;;1999.90;999.90;;;14.50;96.80;;;;;;5092111;28;20486;-73